North Little Rock, AR (72199)

4:15 PM CDT on July 27, 2016 (GMT -0500)
Park Hill | | Change Station

Elev 417 ft 34.78 °N, 92.27 °W | Updated 1 second ago

Light Rain
Light Rain
75.7 °F
Feels Like 75 °F
N
0.2
Wind Variable Wind from ESE
Gusts 2.5 mph

Today
High -- | Low -- °F
--% Chance of Precip.
Yesterday
High -- | Low -- °F
Precip. -- in
Pressure 29.93 in
Visibility 7.0 miles
Clouds Scattered Clouds 1200 ft
Scattered Clouds 3500 ft
Overcast 9000 ft
Heat Index 75 °F
Dew Point 74 °F
Humidity 94%
Rainfall 0.00 in
Snow Depth Not available.
6:15 AM 8:15 PM
Last Quarter, 39% visible
SPECI KLIT 272105Z COR 15004KT 7SM -RA SCT012 SCT035 OVC090 26/23 A2993 RMK AO2 TSE05 TS MOVD SW P0001 T02560228
Pressure 29.93 in
Visibility 7.0 miles
Clouds Scattered Clouds 1200 ft
Scattered Clouds 3500 ft
Overcast 9000 ft
Heat Index 75 °F
Dew Point 74 °F
Humidity 94%
Rainfall 0.00 in
Snow Depth Not available.
6:15 AM 8:15 PM
Last Quarter, 39% visible
SPECI KLIT 272105Z COR 15004KT 7SM -RA SCT012 SCT035 OVC090 26/23 A2993 RMK AO2 TSE05 TS MOVD SW P0001 T02560228

10-Day Weather Forecast

Almanac

Astronomy

Jul. 27, 2016 Rise Set
Actual Time
Civil Twilight
Nautical Twilight
Astronomical Twilight
Moon
Length of Visible Light
Length of Day
Tomorrow will be .
, % of the Moon is Illuminated

Today's Extremes

State Highs State Lows

Community

WunderPhotos

Upload Photos

1,927,937 photos uploaded!

WunderBlog® & News

Nearby

Air Quality

  Air Quality AQ Index Pollutant
Not available.

Snow Depth

Station Depth Elevation

Earthquake Activity

City Distance Mag. Time & Date
Minimum magnitude displayed is 2.5.

Coastal Water Temperatures

Place Temperature

Stations

Nearby Weather Stations

Station Location Temp. Windchill Dew Point Humidity Wind Precip. Elev Updated Type
                   

Watches & Warnings

There are currently no watches in effect.